createdAt,value
2019-04-26T00:04:10.211Z,84.40
2019-04-26T00:09:34.397Z,84.70
2019-04-26T00:14:45.569Z,85.00
2019-04-26T00:19:50.793Z,85.20
2019-04-26T00:24:59.043Z,85.40
2019-04-26T00:30:08.400Z,85.80
2019-04-26T00:35:16.429Z,85.80
2019-04-26T00:40:23.087Z,85.70
2019-04-26T00:45:42.006Z,85.70
2019-04-26T00:50:52.190Z,85.80
2019-04-26T00:55:59.316Z,85.80
2019-04-26T01:01:05.467Z,86.20
2019-04-26T01:06:15.991Z,86.40
2019-04-26T01:11:25.950Z,86.20
2019-04-26T01:16:45.501Z,86.50
2019-04-26T01:21:44.960Z,86.60
2019-04-26T01:27:03.907Z,86.70
2019-04-26T01:32:15.454Z,86.70
2019-04-26T01:37:22.483Z,87.40
2019-04-26T01:42:58.289Z,87.60
2019-04-26T01:48:05.649Z,87.50
2019-04-26T01:53:13.721Z,86.70
2019-04-26T01:58:23.394Z,87.10
2019-04-26T02:05:02.925Z,87.50
2019-04-26T02:08:39.292Z,87.30
2019-04-26T02:13:49.782Z,87.60
2019-04-26T02:19:00.373Z,87.50
2019-04-26T02:24:14.150Z,87.30
2019-04-26T02:29:25.271Z,87.50
2019-04-26T02:34:37.289Z,88.00
2019-04-26T02:39:41.892Z,87.80
2019-04-26T02:44:59.411Z,88.10
2019-04-26T02:50:09.171Z,87.90
2019-04-26T02:55:49.443Z,87.80
2019-04-26T03:01:19.014Z,87.80
2019-04-26T03:06:08.076Z,87.90
2019-04-26T03:11:19.077Z,88.10
2019-04-26T03:16:45.671Z,88.30
2019-04-26T03:22:01.196Z,88.50
2019-04-26T03:27:25.653Z,88.70
2019-04-26T03:33:12.338Z,89.50
2019-04-26T03:39:01.828Z,88.40
2019-04-26T03:44:45.871Z,88.40
2019-04-26T03:50:31.193Z,88.30
2019-04-26T03:55:43.694Z,87.90
2019-04-26T04:01:07.199Z,87.90
2019-04-26T04:06:16.338Z,87.90
2019-04-26T04:11:24.712Z,85.70
2019-04-26T04:17:01.467Z,88.60
2019-04-26T04:22:39.070Z,88.70
2019-04-26T04:28:03.433Z,88.80
2019-04-26T04:33:40.721Z,88.60
2019-04-26T04:39:12.339Z,88.90
2019-04-26T04:45:14.062Z,88.90
2019-04-26T04:50:46.870Z,88.90
2019-04-26T04:55:57.264Z,89.40
2019-04-26T05:01:42.860Z,89.30
2019-04-26T05:07:19.607Z,89.10
2019-04-26T05:12:46.571Z,90.00
2019-04-26T05:18:35.930Z,89.70
2019-04-26T05:24:07.740Z,89.80
2019-04-26T05:29:39.288Z,89.70
2019-04-26T05:34:53.034Z,89.60
2019-04-26T05:40:16.465Z,89.40
2019-04-26T05:45:53.906Z,89.40
2019-04-26T05:51:38.784Z,86.60
2019-04-26T05:57:25.286Z,89.20
2019-04-26T06:02:54.679Z,89.50
2019-04-26T06:08:33.384Z,89.40
2019-04-26T06:14:02.042Z,89.40
2019-04-26T06:19:48.970Z,89.20
2019-04-26T06:25:37.238Z,89.40
2019-04-26T06:30:50.982Z,90.00
2019-04-26T06:35:55.796Z,90.10
2019-04-26T06:41:40.886Z,89.70
2019-04-26T06:47:23.119Z,89.90
2019-04-26T06:52:27.334Z,90.20
2019-04-26T06:58:13.073Z,89.80
2019-04-26T07:03:34.269Z,89.60
2019-04-26T07:08:41.022Z,89.90
2019-04-26T07:14:21.679Z,88.90
2019-04-26T07:19:54.067Z,89.20
2019-04-26T07:25:40.283Z,88.40
2019-04-26T07:31:06.409Z,88.90
2019-04-26T07:42:51.539Z,88.40
2019-04-26T07:48:22.572Z,88.20
2019-04-26T07:53:43.287Z,88.40
2019-04-26T07:59:25.053Z,88.50
2019-04-26T08:04:40.660Z,86.70
2019-04-26T08:09:59.535Z,87.30
2019-04-26T08:15:20.876Z,85.60
2019-04-26T08:20:39.104Z,86.20
2019-04-26T08:25:45.051Z,86.50
2019-04-26T08:30:51.552Z,85.70
2019-04-26T08:35:55.817Z,84.90
2019-04-26T08:41:04.339Z,83.50
2019-04-26T08:46:16.474Z,84.10
2019-04-26T08:51:22.098Z,83.40
2019-04-26T08:56:43.147Z,83.50
2019-04-26T09:01:52.112Z,83.00
2019-04-26T09:07:00.716Z,81.90
2019-04-26T09:12:22.996Z,81.60
2019-04-26T09:17:23.292Z,78.40
2019-04-26T09:22:29.394Z,79.00
2019-04-26T09:27:38.613Z,79.00
2019-04-26T09:32:49.360Z,79.50
2019-04-26T09:37:58.247Z,78.50
2019-04-26T09:43:10.407Z,75.90
2019-04-26T09:48:29.902Z,74.80
2019-04-26T09:53:34.685Z,75.10
2019-04-26T09:58:39.017Z,74.20
2019-04-26T10:03:43.344Z,74.60
2019-04-26T10:08:48.052Z,75.10
2019-04-26T10:13:56.448Z,74.30
2019-04-26T10:19:03.294Z,72.60
2019-04-26T10:24:08.418Z,72.20
2019-04-26T10:29:13.142Z,72.10
2019-04-26T10:34:17.383Z,69.60
2019-04-26T10:39:22.121Z,68.50
2019-04-26T10:44:26.313Z,67.70
2019-04-26T10:49:44.952Z,65.30
2019-04-26T10:55:12.176Z,64.60
2019-04-26T11:00:34.192Z,63.10
2019-04-26T11:05:38.528Z,62.10
2019-04-26T11:10:48.733Z,60.60
2019-04-26T11:15:49.169Z,60.70
2019-04-26T11:20:53.610Z,57.40
2019-04-26T11:25:58.056Z,56.60
2019-04-26T11:31:03.837Z,57.10
2019-04-26T11:36:08.760Z,56.20
2019-04-26T11:41:13.136Z,56.60
2019-04-26T11:46:17.425Z,57.00
2019-04-26T11:51:23.502Z,55.40
2019-04-26T11:56:27.632Z,53.70
2019-04-26T12:01:31.949Z,54.30
2019-04-26T12:06:37.800Z,54.30
2019-04-26T12:11:49.312Z,54.80
2019-04-26T12:16:51.288Z,53.20
2019-04-26T12:21:54.136Z,53.30
2019-04-26T12:26:58.489Z,52.70
2019-04-26T12:32:02.807Z,52.90
2019-04-26T12:37:07.016Z,53.10
2019-04-26T12:42:12.288Z,54.10
2019-04-26T12:47:19.165Z,52.90
2019-04-26T12:52:23.375Z,51.90
2019-04-26T12:57:27.719Z,51.80
2019-04-26T13:02:31.982Z,51.20
2019-04-26T13:07:39.009Z,51.70
2019-04-26T13:12:59.717Z,51.90
2019-04-26T13:18:07.312Z,51.10
2019-04-26T13:23:10.038Z,48.40
2019-04-26T13:28:15.798Z,49.80
2019-04-26T13:33:23.208Z,49.90
2019-04-26T13:38:26.689Z,48.90
2019-04-26T13:43:30.897Z,48.20
2019-04-26T13:48:54.970Z,48.30
2019-04-26T13:53:59.162Z,48.90
2019-04-26T13:59:03.479Z,48.90
2019-04-26T14:04:09.009Z,49.30
2019-04-26T14:09:14.063Z,50.40
2019-04-26T14:14:18.286Z,49.90
2019-04-26T14:19:22.697Z,50.50
2019-04-26T14:24:31.260Z,49.90
2019-04-26T14:29:35.453Z,49.30
2019-04-26T14:34:40.456Z,49.40
2019-04-26T14:39:50.769Z,50.10
2019-04-26T14:44:51.870Z,49.90
2019-04-26T14:49:57.724Z,48.40
2019-04-26T14:55:02.206Z,47.20
2019-04-26T15:00:07.360Z,47.60
2019-04-26T15:05:13.222Z,46.80
2019-04-26T15:10:19.082Z,44.80
2019-04-26T15:15:26.962Z,45.10
2019-04-26T15:20:29.275Z,45.40
2019-04-26T15:25:33.580Z,45.90
2019-04-26T15:30:43.388Z,44.40
2019-04-26T15:35:44.653Z,45.60
2019-04-26T15:40:59.573Z,45.50
2019-04-26T15:46:14.536Z,46.40
2019-04-26T15:51:32.465Z,47.10
2019-04-26T15:56:36.768Z,47.40
2019-04-26T16:01:41.829Z,45.00
2019-04-26T16:06:47.000Z,45.50
2019-04-26T16:11:54.822Z,46.40
2019-04-26T16:16:58.408Z,45.00
2019-04-26T16:22:03.113Z,44.90
2019-04-26T16:27:07.425Z,46.00
2019-04-26T16:32:16.901Z,45.10
2019-04-26T16:37:23.792Z,44.60
2019-04-26T16:42:27.888Z,44.30
2019-04-26T16:47:35.258Z,44.10
2019-04-26T16:52:42.293Z,44.50
2019-04-26T16:57:54.906Z,44.20
2019-04-26T17:02:50.031Z,44.70
2019-04-26T17:07:58.804Z,44.80
2019-04-26T17:13:00.280Z,45.70
2019-04-26T17:18:04.723Z,46.20
2019-04-26T17:23:12.353Z,46.30
2019-04-26T17:28:18.017Z,46.60
2019-04-26T17:33:28.087Z,46.00
2019-04-26T17:38:28.974Z,45.90
2019-04-26T17:43:33.283Z,46.40
2019-04-26T17:48:37.561Z,47.00
2019-04-26T17:53:44.053Z,47.30
2019-04-26T17:58:52.451Z,47.30
2019-04-26T18:03:55.837Z,48.20
2019-04-26T18:08:59.801Z,47.90
2019-04-26T18:14:06.879Z,48.10
2019-04-26T18:19:14.713Z,48.20
2019-04-26T18:24:18.935Z,48.40
2019-04-26T18:29:28.840Z,48.80
2019-04-26T18:34:30.491Z,48.70
2019-04-26T18:39:35.543Z,48.90
2019-04-26T18:44:47.530Z,49.20
2019-04-26T18:49:45.769Z,49.10
2019-04-26T18:54:52.481Z,49.40
2019-04-26T18:59:57.218Z,49.20
2019-04-26T19:05:01.584Z,49.50
2019-04-26T19:10:07.383Z,50.00
2019-04-26T19:15:55.368Z,49.60
2019-04-26T19:21:42.302Z,49.70
2019-04-26T19:26:49.921Z,49.80
2019-04-26T19:32:13.877Z,50.20
2019-04-26T19:37:23.385Z,50.90
2019-04-26T19:42:43.202Z,50.80
2019-04-26T19:48:07.126Z,51.10
2019-04-26T19:53:51.677Z,51.50
2019-04-26T19:59:00.701Z,51.60
2019-04-26T20:10:04.964Z,51.70
2019-04-26T20:20:43.548Z,51.80
2019-04-26T20:26:22.653Z,51.80
2019-04-26T20:37:10.996Z,52.40
2019-04-26T20:42:23.189Z,52.50
2019-04-26T20:47:55.794Z,52.90
2019-04-26T20:53:03.743Z,54.60
2019-04-26T20:58:11.668Z,55.00
2019-04-26T21:03:23.715Z,55.90
2019-04-26T21:08:25.801Z,56.80
2019-04-26T21:13:33.208Z,57.50
2019-04-26T21:18:39.967Z,58.10
2019-04-26T21:23:45.109Z,58.60
2019-04-26T21:29:15.484Z,59.10
2019-04-26T21:34:16.871Z,59.60
2019-04-26T21:39:27.260Z,60.00
2019-04-26T21:44:31.684Z,60.40
2019-04-26T21:49:38.077Z,61.10
2019-04-26T21:54:43.678Z,61.60
2019-04-26T21:59:49.645Z,61.90
2019-04-26T22:04:54.607Z,62.30
2019-04-26T22:10:10.675Z,62.50
2019-04-26T22:15:17.997Z,62.90
2019-04-26T22:20:27.106Z,63.20
2019-04-26T22:25:36.085Z,63.50
2019-04-26T22:30:43.442Z,63.80
2019-04-26T22:35:50.523Z,64.10
2019-04-26T22:40:58.104Z,64.50
2019-04-26T22:46:05.018Z,64.30
2019-04-26T22:51:14.025Z,64.50
2019-04-26T22:56:26.168Z,64.70
2019-04-26T23:01:33.039Z,64.90
2019-04-26T23:06:51.391Z,65.20
2019-04-26T23:13:48.780Z,65.50
2019-04-26T23:17:41.285Z,65.90
2019-04-26T23:22:45.985Z,66.10
2019-04-26T23:27:56.718Z,66.50
2019-04-26T23:33:04.261Z,66.70
2019-04-26T23:38:13.551Z,66.90
2019-04-26T23:43:22.519Z,67.10
2019-04-26T23:48:29.161Z,67.30
2019-04-26T23:53:35.893Z,67.50
2019-04-26T23:58:44.046Z,67.70
